createdAt,value
2016-11-19T00:00:20.253Z,16.36
2016-11-19T00:01:20.379Z,16.39
2016-11-19T00:02:20.404Z,16.32
2016-11-19T00:03:20.406Z,16.36
2016-11-19T00:04:20.567Z,16.26
2016-11-19T00:05:20.506Z,16.24
2016-11-19T00:06:20.563Z,16.26
2016-11-19T00:07:20.620Z,16.17
2016-11-19T00:08:20.706Z,16.26
2016-11-19T00:09:20.772Z,16.31
2016-11-19T00:10:20.768Z,15.98
2016-11-19T00:11:20.790Z,16.08
2016-11-19T00:12:20.838Z,16.04
2016-11-19T00:13:21.418Z,15.91
2016-11-19T00:14:21.130Z,15.97
2016-11-19T00:15:20.995Z,16.02
2016-11-19T00:16:21.584Z,16.04
2016-11-19T00:17:21.102Z,16.02
2016-11-19T00:18:21.668Z,16.04
2016-11-19T00:19:21.213Z,16.01
2016-11-19T00:20:21.253Z,16.04
2016-11-19T00:21:21.260Z,16.1
2016-11-19T00:22:21.299Z,16.17
2016-11-19T00:23:21.395Z,16.21
2016-11-19T00:24:21.432Z,16.21
2016-11-19T00:25:21.494Z,16.32
2016-11-19T00:26:21.549Z,16.28
2016-11-19T00:27:21.800Z,16.26
2016-11-19T00:28:21.643Z,16.28
2016-11-19T00:29:22.210Z,16.29
2016-11-19T00:30:21.846Z,16.29
2016-11-19T00:31:21.800Z,16.32
2016-11-19T00:32:22.345Z,16.12
2016-11-19T00:33:21.883Z,16
2016-11-19T00:34:21.905Z,15.76
2016-11-19T00:35:22.039Z,15.79
2016-11-19T00:36:22.017Z,15.84
2016-11-19T00:37:22.044Z,15.76
2016-11-19T00:38:22.105Z,15.82
2016-11-19T00:39:22.156Z,15.7
2016-11-19T00:40:22.340Z,15.83
2016-11-19T00:41:22.292Z,15.88
2016-11-19T00:42:22.275Z,16.01
2016-11-19T00:43:22.360Z,16.04
2016-11-19T00:44:22.408Z,16.08
2016-11-19T00:45:23.312Z,16.16
2016-11-19T00:46:22.512Z,16.05
2016-11-19T00:47:22.559Z,16.13
2016-11-19T00:48:22.616Z,16.12
2016-11-19T00:49:22.672Z,16.1
2016-11-19T00:50:22.673Z,16.05
2016-11-19T00:51:22.763Z,16.2
2016-11-19T00:52:22.791Z,16.2
2016-11-19T00:53:22.850Z,16.15
2016-11-19T00:54:22.967Z,16.24
2016-11-19T00:55:22.960Z,16.28
2016-11-19T00:56:23.022Z,16.29
2016-11-19T00:57:23.063Z,16.26
2016-11-19T00:58:23.603Z,16.28
2016-11-19T00:59:23.129Z,16.31
2016-11-19T01:00:23.218Z,16.36
2016-11-19T01:01:23.583Z,16.23
2016-11-19T01:02:23.285Z,16.21
2016-11-19T01:03:23.342Z,16.33
2016-11-19T01:04:23.391Z,16.26
2016-11-19T01:05:23.477Z,16.21
2016-11-19T01:06:23.782Z,16.05
2016-11-19T01:07:23.547Z,16.01
2016-11-19T01:08:23.586Z,15.94
2016-11-19T01:09:23.668Z,16
2016-11-19T01:10:24.221Z,15.98
2016-11-19T01:11:24.069Z,16.02
2016-11-19T01:12:23.779Z,15.92
2016-11-19T01:13:23.872Z,15.94
2016-11-19T01:14:23.900Z,15.83
2016-11-19T01:15:23.931Z,15.88
2016-11-19T01:16:23.953Z,15.92
2016-11-19T01:17:24.008Z,16.08
2016-11-19T01:18:24.077Z,16.02
2016-11-19T01:19:24.099Z,16.12
2016-11-19T01:20:24.157Z,16.2
2016-11-19T01:21:24.768Z,16.12
2016-11-19T01:22:24.278Z,16.02
2016-11-19T01:23:24.318Z,16.08
2016-11-19T01:24:24.337Z,15.97
2016-11-19T01:25:24.422Z,15.97
2016-11-19T01:26:24.432Z,16.02
2016-11-19T01:27:24.801Z,15.98
2016-11-19T01:28:24.540Z,16
2016-11-19T01:29:24.616Z,15.98
2016-11-19T01:30:24.652Z,15.92
2016-11-19T01:31:24.690Z,15.91
2016-11-19T01:32:25.581Z,15.86
2016-11-19T01:33:24.788Z,15.97
2016-11-19T01:34:24.812Z,15.97
2016-11-19T01:35:24.894Z,15.88
2016-11-19T01:36:24.965Z,15.8
2016-11-19T01:37:25.293Z,15.8
2016-11-19T01:38:25.557Z,15.86
2016-11-19T01:39:25.072Z,15.73
2016-11-19T01:40:25.107Z,15.54
2016-11-19T01:41:25.202Z,15.59
2016-11-19T01:42:26.054Z,15.62
2016-11-19T01:43:25.277Z,15.58
2016-11-19T01:44:25.305Z,15.64
2016-11-19T01:45:25.365Z,15.79
2016-11-19T01:46:25.444Z,15.76
2016-11-19T01:47:25.489Z,15.9
2016-11-19T01:48:26.031Z,15.94
2016-11-19T01:49:25.574Z,15.83
2016-11-19T01:50:25.619Z,15.79
2016-11-19T01:51:25.676Z,15.8
2016-11-19T01:52:25.742Z,15.79
2016-11-19T01:53:25.746Z,15.7
2016-11-19T01:54:25.819Z,15.67
2016-11-19T01:55:25.900Z,15.64
2016-11-19T01:56:25.912Z,15.67
2016-11-19T01:57:25.982Z,15.64
2016-11-19T01:58:26.290Z,15.68
2016-11-19T01:59:26.013Z,15.75
2016-11-19T02:00:26.098Z,15.76
2016-11-19T02:01:26.704Z,15.79
2016-11-19T02:02:26.220Z,15.73
2016-11-19T02:03:26.358Z,15.64
2016-11-19T02:04:26.284Z,15.7
2016-11-19T02:05:26.361Z,15.58
2016-11-19T02:06:26.401Z,15.7
2016-11-19T02:07:26.474Z,15.68
2016-11-19T02:08:26.608Z,15.67
2016-11-19T02:09:26.540Z,15.59
2016-11-19T02:10:26.581Z,15.68
2016-11-19T02:11:26.710Z,15.65
2016-11-19T02:12:26.668Z,15.77
2016-11-19T02:13:26.829Z,15.7
2016-11-19T02:14:26.781Z,15.79
2016-11-19T02:15:26.836Z,15.77
2016-11-19T02:16:26.877Z,15.75
2016-11-19T02:17:26.928Z,15.76
2016-11-19T02:18:26.940Z,15.77
2016-11-19T02:19:27.056Z,15.73
2016-11-19T02:20:27.074Z,15.79
2016-11-19T02:21:27.122Z,15.79
2016-11-19T02:22:27.181Z,15.8
2016-11-19T02:23:27.204Z,15.82
2016-11-19T02:24:27.245Z,15.75
2016-11-19T02:25:27.361Z,15.83
2016-11-19T02:26:27.391Z,15.95
2016-11-19T02:27:27.414Z,15.94
2016-11-19T02:28:27.978Z,15.88
2016-11-19T02:29:27.496Z,15.9
2016-11-19T02:30:27.560Z,15.76
2016-11-19T02:31:27.607Z,15.86
2016-11-19T02:32:27.638Z,15.73
2016-11-19T02:33:27.681Z,15.73
2016-11-19T02:34:27.880Z,15.7
2016-11-19T02:35:27.755Z,15.73
2016-11-19T02:36:27.892Z,15.79
2016-11-19T02:37:27.915Z,15.75
2016-11-19T02:38:27.928Z,15.86
2016-11-19T02:39:28.615Z,15.88
2016-11-19T02:40:28.025Z,15.8
2016-11-19T02:41:28.093Z,15.8
2016-11-19T02:42:28.146Z,15.86
2016-11-19T02:43:28.144Z,15.77
2016-11-19T02:44:28.380Z,15.76
2016-11-19T02:45:28.292Z,15.8
2016-11-19T02:46:28.350Z,15.82
2016-11-19T02:47:28.407Z,15.84
2016-11-19T02:48:28.441Z,15.9
2016-11-19T02:49:28.556Z,15.77
2016-11-19T02:50:28.505Z,15.86
2016-11-19T02:51:28.552Z,15.83
2016-11-19T02:52:28.640Z,15.79
2016-11-19T02:53:28.669Z,15.77
2016-11-19T02:54:28.721Z,15.76
2016-11-19T02:55:28.793Z,15.64
2016-11-19T02:56:28.798Z,15.46
2016-11-19T02:57:28.873Z,15.46
2016-11-19T02:58:28.880Z,15.55
2016-11-19T02:59:28.968Z,15.42
2016-11-19T03:00:29.002Z,15.46
2016-11-19T03:01:29.053Z,15.46
2016-11-19T03:02:29.645Z,15.52
2016-11-19T03:03:29.161Z,15.51
2016-11-19T03:04:29.198Z,15.46
2016-11-19T03:05:29.350Z,15.46
2016-11-19T03:06:29.294Z,15.46
2016-11-19T03:07:29.335Z,15.44
2016-11-19T03:08:29.407Z,15.49
2016-11-19T03:09:29.409Z,15.44
2016-11-19T03:10:29.564Z,15.4
2016-11-19T03:11:29.529Z,15.43
2016-11-19T03:12:29.602Z,15.57
2016-11-19T03:13:30.202Z,15.55
2016-11-19T03:14:29.704Z,15.61
2016-11-19T03:15:29.813Z,15.54
2016-11-19T03:16:29.787Z,15.55
2016-11-19T03:17:29.826Z,15.35
2016-11-19T03:18:29.871Z,15.37
2016-11-19T03:19:29.939Z,15.33
2016-11-19T03:20:29.998Z,15.42
2016-11-19T03:21:30.035Z,15.44
2016-11-19T03:22:30.043Z,15.36
2016-11-19T03:23:30.086Z,15.36
2016-11-19T03:24:30.168Z,15.36
2016-11-19T03:25:30.183Z,15.31
2016-11-19T03:26:30.285Z,15.51
2016-11-19T03:27:30.316Z,15.43
2016-11-19T03:28:30.338Z,15.46
2016-11-19T03:29:30.408Z,15.58
2016-11-19T03:30:30.445Z,15.58
2016-11-19T03:31:31.217Z,15.58
2016-11-19T03:32:30.573Z,15.58
2016-11-19T03:33:30.636Z,15.59
2016-11-19T03:34:30.670Z,15.62
2016-11-19T03:35:30.682Z,15.52
2016-11-19T03:36:30.848Z,15.43
2016-11-19T03:37:30.768Z,15.44
2016-11-19T03:38:30.834Z,15.42
2016-11-19T03:39:30.910Z,15.47
2016-11-19T03:40:30.952Z,15.46
2016-11-19T03:41:31.619Z,15.49
2016-11-19T03:42:31.044Z,15.51
2016-11-19T03:43:31.071Z,15.52
2016-11-19T03:44:31.119Z,15.46
2016-11-19T03:45:31.211Z,15.46
2016-11-19T03:46:31.324Z,15.51
2016-11-19T03:47:31.305Z,15.51
2016-11-19T03:48:31.356Z,15.54
2016-11-19T03:49:31.372Z,15.58
2016-11-19T03:50:31.400Z,15.54
2016-11-19T03:51:31.494Z,15.51
2016-11-19T03:52:31.522Z,15.67
2016-11-19T03:53:31.590Z,15.67
2016-11-19T03:54:31.602Z,15.7
2016-11-19T03:55:32.225Z,15.64
2016-11-19T03:56:31.733Z,15.52
2016-11-19T03:57:31.776Z,15.4
2016-11-19T03:58:32.311Z,15.55
2016-11-19T03:59:31.874Z,15.51
2016-11-19T04:00:31.894Z,15.54
2016-11-19T04:01:31.962Z,15.33
2016-11-19T04:02:32.083Z,15.35
2016-11-19T04:03:32.031Z,15.33
2016-11-19T04:04:32.116Z,15.35
2016-11-19T04:05:32.165Z,15.22
2016-11-19T04:06:32.215Z,15.22
2016-11-19T04:07:32.309Z,15.35
2016-11-19T04:08:32.306Z,15.35
2016-11-19T04:09:32.302Z,15.18
2016-11-19T04:10:32.380Z,15.22
2016-11-19T04:11:32.419Z,15.22
2016-11-19T04:12:32.600Z,15.27
2016-11-19T04:13:32.533Z,15.22
2016-11-19T04:14:32.594Z,15.33
2016-11-19T04:15:33.168Z,15.33
2016-11-19T04:16:32.741Z,15.35
2016-11-19T04:17:32.818Z,15.35
2016-11-19T04:18:32.764Z,15.39
2016-11-19T04:19:32.818Z,15.44
2016-11-19T04:20:32.871Z,15.42
2016-11-19T04:21:33.454Z,15.46
2016-11-19T04:22:33.085Z,15.46
2016-11-19T04:23:33.024Z,15.44
2016-11-19T04:24:33.037Z,15.46
2016-11-19T04:25:33.158Z,15.46
2016-11-19T04:26:33.172Z,15.46
2016-11-19T04:27:33.196Z,15.4
2016-11-19T04:28:33.254Z,15.51
2016-11-19T04:29:33.265Z,15.51
2016-11-19T04:30:33.339Z,15.44
2016-11-19T04:31:33.423Z,15.47
2016-11-19T04:32:33.443Z,15.46
2016-11-19T04:33:33.499Z,15.33
2016-11-19T04:34:33.564Z,15.36
2016-11-19T04:35:33.602Z,15.24
2016-11-19T04:36:33.630Z,15.36
2016-11-19T04:37:33.729Z,15.33
2016-11-19T04:38:33.746Z,15.36
2016-11-19T04:39:33.798Z,15.25
2016-11-19T04:40:33.820Z,15.25
2016-11-19T04:41:33.885Z,15.33
2016-11-19T04:42:33.964Z,15.35
2016-11-19T04:43:34.109Z,15.31
2016-11-19T04:44:34.053Z,15.4
2016-11-19T04:45:34.657Z,15.31
2016-11-19T04:46:34.112Z,15.37
2016-11-19T04:47:34.192Z,15.46
2016-11-19T04:48:34.320Z,15.35
2016-11-19T04:49:34.266Z,15.27
2016-11-19T04:50:34.310Z,15.1
2016-11-19T04:51:34.383Z,15.02
2016-11-19T04:52:34.448Z,15.07
2016-11-19T04:53:34.570Z,14.99
2016-11-19T04:54:34.531Z,14.97
2016-11-19T04:55:34.594Z,15.07
2016-11-19T04:56:34.596Z,15.19
2016-11-19T04:57:34.696Z,15.25
2016-11-19T04:58:34.742Z,15.19
2016-11-19T04:59:34.769Z,14.92
2016-11-19T05:00:34.818Z,14.84
2016-11-19T05:01:34.861Z,15.07
2016-11-19T05:02:34.949Z,14.97
2016-11-19T05:03:34.955Z,14.96
2016-11-19T05:04:35.008Z,14.97
2016-11-19T05:05:35.069Z,15.09
2016-11-19T05:06:35.619Z,15
2016-11-19T05:07:35.132Z,14.97
2016-11-19T05:08:35.186Z,15.09
2016-11-19T05:09:35.237Z,15.09
2016-11-19T05:10:35.292Z,15.07
2016-11-19T05:11:35.370Z,15.17
2016-11-19T05:12:35.394Z,15.02
2016-11-19T05:13:35.450Z,15.04
2016-11-19T05:14:35.600Z,15.07
2016-11-19T05:15:35.512Z,15.1
2016-11-19T05:16:35.565Z,15.07
2016-11-19T05:17:35.626Z,15.09
2016-11-19T05:18:35.702Z,15.04
2016-11-19T05:19:35.804Z,14.99
2016-11-19T05:20:35.744Z,15.04
2016-11-19T05:21:35.855Z,14.92
2016-11-19T05:22:35.866Z,14.99
2016-11-19T05:23:35.915Z,14.92
2016-11-19T05:24:36.029Z,15.02
2016-11-19T05:25:35.978Z,15.07
2016-11-19T05:26:36.053Z,15.19
2016-11-19T05:27:36.088Z,15.18
2016-11-19T05:28:36.142Z,15.24
2016-11-19T05:29:36.870Z,15.31
2016-11-19T05:30:36.760Z,15.27
2016-11-19T05:31:36.284Z,15.31
2016-11-19T05:32:36.343Z,15.21
2016-11-19T05:33:36.404Z,15.18
2016-11-19T05:34:36.470Z,15.19
2016-11-19T05:35:36.477Z,15.09
2016-11-19T05:36:36.503Z,15.1
2016-11-19T05:37:36.574Z,15.21
2016-11-19T05:38:36.621Z,15.22
2016-11-19T05:39:36.706Z,15.31
2016-11-19T05:40:36.755Z,15.22
2016-11-19T05:41:36.816Z,15.22
2016-11-19T05:42:36.815Z,15.09
2016-11-19T05:43:36.913Z,15.02
2016-11-19T05:44:36.916Z,14.97
2016-11-19T05:45:36.957Z,14.94
2016-11-19T05:46:37.044Z,14.97
2016-11-19T05:47:37.597Z,15.03
2016-11-19T05:48:37.673Z,15.09
2016-11-19T05:49:37.145Z,15.06
2016-11-19T05:50:37.233Z,15.03
2016-11-19T05:51:37.285Z,15.07
2016-11-19T05:52:37.332Z,15.11
2016-11-19T05:53:37.356Z,15.19
2016-11-19T05:54:37.442Z,15.22
2016-11-19T05:55:37.577Z,15.24
2016-11-19T05:56:37.519Z,15.28
2016-11-19T05:57:37.580Z,15.17
2016-11-19T05:58:37.584Z,15.19
2016-11-19T05:59:37.669Z,15.21
2016-11-19T06:00:37.794Z,15.11
2016-11-19T06:01:37.759Z,15.02
2016-11-19T06:02:37.851Z,15.04
2016-11-19T06:03:37.871Z,15.03
2016-11-19T06:04:37.872Z,15.09
2016-11-19T06:05:38.052Z,15.14
2016-11-19T06:06:37.944Z,15.11
2016-11-19T06:07:38.050Z,15.18
2016-11-19T06:08:38.074Z,15.18
2016-11-19T06:09:38.141Z,15.18
2016-11-19T06:10:38.288Z,15.21
2016-11-19T06:11:38.223Z,15.21
2016-11-19T06:12:38.251Z,15.27
2016-11-19T06:13:38.307Z,15.24
2016-11-19T06:14:38.383Z,15.18
2016-11-19T06:15:38.425Z,15.37
2016-11-19T06:16:38.479Z,15.27
2016-11-19T06:17:38.505Z,15.36
2016-11-19T06:18:38.544Z,15.33
2016-11-19T06:19:38.608Z,15.21
2016-11-19T06:20:38.671Z,15.21
2016-11-19T06:21:38.745Z,15.21
2016-11-19T06:22:38.737Z,14.97
2016-11-19T06:23:38.793Z,15.03
2016-11-19T06:24:39.402Z,15.09
2016-11-19T06:25:38.937Z,15.06
2016-11-19T06:26:39.031Z,15.15
2016-11-19T06:27:39.009Z,15.17
2016-11-19T06:28:39.009Z,15.18
2016-11-19T06:29:39.135Z,15.24
2016-11-19T06:30:39.186Z,15.21
2016-11-19T06:31:39.784Z,15.21
2016-11-19T06:32:39.286Z,15.24
2016-11-19T06:33:39.319Z,15.15
2016-11-19T06:34:39.377Z,15.09
2016-11-19T06:35:39.399Z,15.06
2016-11-19T06:36:39.535Z,14.86
2016-11-19T06:37:39.506Z,14.78
2016-11-19T06:38:39.496Z,14.88
2016-11-19T06:39:39.606Z,14.79
2016-11-19T06:40:39.637Z,14.84
2016-11-19T06:41:39.806Z,14.97
2016-11-19T06:42:39.754Z,14.92
2016-11-19T06:43:39.795Z,14.79
2016-11-19T06:44:39.825Z,14.84
2016-11-19T06:45:40.383Z,14.85
2016-11-19T06:46:39.909Z,14.92
2016-11-19T06:47:40.008Z,15.02
2016-11-19T06:48:40.545Z,15.03
2016-11-19T06:49:40.044Z,14.97
2016-11-19T06:50:40.123Z,15.06
2016-11-19T06:51:40.227Z,15.09
2016-11-19T06:52:40.169Z,15.07
2016-11-19T06:53:40.221Z,15.14
2016-11-19T06:54:40.796Z,15.1
2016-11-19T06:55:40.360Z,15.1
2016-11-19T06:56:40.416Z,15.1
2016-11-19T06:57:40.407Z,14.96
2016-11-19T06:58:40.528Z,15.02
2016-11-19T06:59:40.546Z,15.07
2016-11-19T07:00:40.557Z,15.07
2016-11-19T07:01:40.633Z,15.1
2016-11-19T07:02:40.815Z,15.09
2016-11-19T07:03:40.738Z,15.27
2016-11-19T07:04:40.735Z,15.21
2016-11-19T07:05:40.837Z,15.25
2016-11-19T07:06:40.862Z,15.21
2016-11-19T07:07:41.033Z,15.21
2016-11-19T07:08:40.980Z,15.09
2016-11-19T07:09:41.012Z,15.07
2016-11-19T07:10:41.027Z,15
2016-11-19T07:11:41.111Z,14.84
2016-11-19T07:12:41.255Z,14.79
2016-11-19T07:13:41.173Z,14.84
2016-11-19T07:14:41.267Z,14.82
2016-11-19T07:15:41.299Z,14.82
2016-11-19T07:16:41.369Z,14.89
2016-11-19T07:17:41.546Z,14.91
2016-11-19T07:18:41.425Z,14.89
2016-11-19T07:19:41.459Z,14.96
2016-11-19T07:20:42.047Z,14.94
2016-11-19T07:21:41.559Z,14.82
2016-11-19T07:22:41.726Z,14.78
2016-11-19T07:23:41.660Z,14.91
2016-11-19T07:24:41.732Z,14.88
2016-11-19T07:25:41.796Z,14.91
2016-11-19T07:26:41.826Z,14.99
2016-11-19T07:27:41.854Z,15
2016-11-19T07:28:41.928Z,15.04
2016-11-19T07:29:41.961Z,15.06
2016-11-19T07:30:42.035Z,14.88
2016-11-19T07:31:42.086Z,14.96
2016-11-19T07:32:42.106Z,15.02
2016-11-19T07:33:42.161Z,14.81
2016-11-19T07:34:42.199Z,14.84
2016-11-19T07:35:42.286Z,14.73
2016-11-19T07:36:42.816Z,14.72
2016-11-19T07:37:42.900Z,14.7
2016-11-19T07:38:42.431Z,14.77
2016-11-19T07:39:42.448Z,14.82
2016-11-19T07:40:43.038Z,14.84
2016-11-19T07:41:42.546Z,14.88
2016-11-19T07:42:42.591Z,14.89
2016-11-19T07:43:42.783Z,14.89
2016-11-19T07:44:42.720Z,14.78
2016-11-19T07:45:42.779Z,14.77
2016-11-19T07:46:42.848Z,14.84
2016-11-19T07:47:43.328Z,14.88
2016-11-19T07:48:43.006Z,14.78
2016-11-19T07:49:42.968Z,14.7
2016-11-19T07:50:42.980Z,14.4
2016-11-19T07:51:43.050Z,14.35
2016-11-19T07:52:43.095Z,14.44
2016-11-19T07:53:43.231Z,14.5
2016-11-19T07:54:43.213Z,14.58
2016-11-19T07:55:43.235Z,14.58
2016-11-19T07:56:43.297Z,14.55
2016-11-19T07:57:43.307Z,14.55
2016-11-19T07:58:43.380Z,14.72
2016-11-19T07:59:43.401Z,14.7
2016-11-19T08:00:43.477Z,14.65
2016-11-19T08:01:44.041Z,14.72
2016-11-19T08:02:43.566Z,14.84
2016-11-19T08:03:43.607Z,14.78
2016-11-19T08:04:43.637Z,14.77
2016-11-19T08:05:43.755Z,14.65
2016-11-19T08:06:43.751Z,14.85
2016-11-19T08:07:43.837Z,14.78
2016-11-19T08:08:43.864Z,14.72
2016-11-19T08:09:43.910Z,14.73
2016-11-19T08:10:43.982Z,14.78
2016-11-19T08:11:44.023Z,14.72
2016-11-19T08:12:44.028Z,14.78
2016-11-19T08:13:44.105Z,14.7
2016-11-19T08:14:44.269Z,14.66
2016-11-19T08:15:44.224Z,14.84
2016-11-19T08:16:44.244Z,14.81
2016-11-19T08:17:44.320Z,14.84
2016-11-19T08:18:44.331Z,14.81
2016-11-19T08:19:44.479Z,14.84
2016-11-19T08:20:44.458Z,14.81
2016-11-19T08:21:44.525Z,14.84
2016-11-19T08:22:44.565Z,14.81
2016-11-19T08:23:44.597Z,14.79
2016-11-19T08:24:44.758Z,14.97
2016-11-19T08:25:44.670Z,14.85
2016-11-19T08:26:44.746Z,14.91
2016-11-19T08:27:44.813Z,14.94
2016-11-19T08:28:44.857Z,14.85
2016-11-19T08:29:44.999Z,14.79
2016-11-19T08:30:44.894Z,14.86
2016-11-19T08:31:44.930Z,14.82
2016-11-19T08:32:45.054Z,14.81
2016-11-19T08:33:45.087Z,14.84
2016-11-19T08:34:45.190Z,14.89
2016-11-19T08:35:45.171Z,14.89
2016-11-19T08:36:45.215Z,14.97
2016-11-19T08:37:45.251Z,15.04
2016-11-19T08:38:45.267Z,14.99
2016-11-19T08:39:45.392Z,15.07
2016-11-19T08:40:45.424Z,15.03
2016-11-19T08:41:45.454Z,15.1
2016-11-19T08:42:45.523Z,15.06
2016-11-19T08:43:45.590Z,15.09
2016-11-19T08:44:45.595Z,15.15
2016-11-19T08:45:45.668Z,15.17
2016-11-19T08:46:45.706Z,15.24
2016-11-19T08:47:45.734Z,15.39
2016-11-19T08:48:45.838Z,15.22
2016-11-19T08:49:45.864Z,15.22
2016-11-19T08:50:45.902Z,15.33
2016-11-19T08:51:45.973Z,15.24
2016-11-19T08:52:46.477Z,15.28
2016-11-19T08:53:46.061Z,15.33
2016-11-19T08:54:46.082Z,15.27
2016-11-19T08:55:46.219Z,15.19
2016-11-19T08:56:46.146Z,15.31
2016-11-19T08:57:46.223Z,15.27
2016-11-19T08:58:46.290Z,15.4
2016-11-19T08:59:46.332Z,15.37
2016-11-19T09:00:46.473Z,15.51
2016-11-19T09:01:46.441Z,15.52
2016-11-19T09:02:46.526Z,15.68
2016-11-19T09:03:46.508Z,15.51
2016-11-19T09:04:46.596Z,15.65
2016-11-19T09:05:46.738Z,15.65
2016-11-19T09:06:46.696Z,15.62
2016-11-19T09:07:46.728Z,15.72
2016-11-19T09:08:46.823Z,15.79
2016-11-19T09:09:46.789Z,15.9
2016-11-19T09:10:46.976Z,16.04
2016-11-19T09:11:46.959Z,16.24
2016-11-19T09:12:47.473Z,16.26
2016-11-19T09:13:47.016Z,16.38
2016-11-19T09:14:47.035Z,16.35
2016-11-19T09:15:47.139Z,16.26
2016-11-19T09:16:47.190Z,16.36
2016-11-19T09:17:47.201Z,16.31
2016-11-19T09:18:47.260Z,16.36
2016-11-19T09:19:47.294Z,16.53
2016-11-19T09:20:47.383Z,16.56
2016-11-19T09:21:47.412Z,16.39
2016-11-19T09:22:47.422Z,16.42
2016-11-19T09:23:47.519Z,16.31
2016-11-19T09:24:47.553Z,16.46
2016-11-19T09:25:47.686Z,16.13
2016-11-19T09:26:47.720Z,16.28
2016-11-19T09:27:47.724Z,16.08
2016-11-19T09:28:47.800Z,16.13
2016-11-19T09:29:47.813Z,16.01
2016-11-19T09:30:47.847Z,15.82
2016-11-19T09:31:48.040Z,15.94
2016-11-19T09:32:47.990Z,15.76
2016-11-19T09:33:47.986Z,15.68
2016-11-19T09:34:48.062Z,15.58
2016-11-19T09:35:48.123Z,15.67
2016-11-19T09:36:48.307Z,15.65
2016-11-19T09:37:48.223Z,15.57
2016-11-19T09:38:48.243Z,15.49
2016-11-19T09:39:48.279Z,15.51
2016-11-19T09:40:48.373Z,15.4
2016-11-19T09:41:48.484Z,15.28
2016-11-19T09:42:48.429Z,15.28
2016-11-19T09:43:48.511Z,15.35
2016-11-19T09:44:48.541Z,15.35
2016-11-19T09:45:48.573Z,15.31
2016-11-19T09:46:48.732Z,15.19
2016-11-19T09:47:48.698Z,15.37
2016-11-19T09:48:48.730Z,15.29
2016-11-19T09:49:48.782Z,15.42
2016-11-19T09:50:48.808Z,15.42
2016-11-19T09:51:48.949Z,15.47
2016-11-19T09:52:48.924Z,15.31
2016-11-19T09:53:48.990Z,15.24
2016-11-19T09:54:49.029Z,15.21
2016-11-19T09:55:49.600Z,15.21
2016-11-19T09:56:49.113Z,15.25
2016-11-19T09:57:49.189Z,15.29
2016-11-19T09:58:49.227Z,15.37
2016-11-19T09:59:49.249Z,15.36
2016-11-19T10:00:49.330Z,15.37
2016-11-19T10:01:49.384Z,15.17
2016-11-19T10:02:49.401Z,15.21
2016-11-19T10:03:49.515Z,15.35
2016-11-19T10:04:50.062Z,15.37
2016-11-19T10:05:49.585Z,15.35
2016-11-19T10:06:49.607Z,15.37
2016-11-19T10:07:49.757Z,15.46
2016-11-19T10:08:50.219Z,15.44
2016-11-19T10:09:49.760Z,15.43
2016-11-19T10:10:49.846Z,15.4
2016-11-19T10:11:49.855Z,15.37
2016-11-19T10:12:50.015Z,15.44
2016-11-19T10:13:49.960Z,15.43
2016-11-19T10:14:50.028Z,15.55
2016-11-19T10:15:50.055Z,15.52
2016-11-19T10:16:50.084Z,15.31
2016-11-19T10:17:50.243Z,15.46
2016-11-19T10:18:50.207Z,15.46
2016-11-19T10:19:50.298Z,15.43
2016-11-19T10:20:50.307Z,15.39
2016-11-19T10:21:50.305Z,15.33
2016-11-19T10:22:50.510Z,15.36
2016-11-19T10:23:50.430Z,15.37
2016-11-19T10:24:50.490Z,15.35
2016-11-19T10:25:50.553Z,15.29
2016-11-19T10:26:50.579Z,15.35
2016-11-19T10:27:50.614Z,15.24
2016-11-19T10:28:51.197Z,15.22
2016-11-19T10:29:50.688Z,15.25
2016-11-19T10:30:50.781Z,15.35
2016-11-19T10:31:50.876Z,15.27
2016-11-19T10:32:50.859Z,15.22
2016-11-19T10:33:50.929Z,15.22
2016-11-19T10:34:50.958Z,15.31
2016-11-19T10:35:51.013Z,15.18
2016-11-19T10:36:51.069Z,15.29
2016-11-19T10:37:51.085Z,15.28
2016-11-19T10:38:51.149Z,15.43
2016-11-19T10:39:51.185Z,15.51
2016-11-19T10:40:51.304Z,15.64
2016-11-19T10:41:51.284Z,15.7
2016-11-19T10:42:51.337Z,15.61
2016-11-19T10:43:51.482Z,15.79
2016-11-19T10:44:51.424Z,15.79
2016-11-19T10:45:52.016Z,15.8
2016-11-19T10:46:51.569Z,15.77
2016-11-19T10:47:51.630Z,15.64
2016-11-19T10:48:51.779Z,15.54
2016-11-19T10:49:51.713Z,15.55
2016-11-19T10:50:51.790Z,15.58
2016-11-19T10:51:51.822Z,15.64
2016-11-19T10:52:51.831Z,15.67
2016-11-19T10:53:51.986Z,15.64
2016-11-19T10:54:51.954Z,15.64
2016-11-19T10:55:52.500Z,15.54
2016-11-19T10:56:52.091Z,15.62
2016-11-19T10:57:52.097Z,15.76
2016-11-19T10:58:52.205Z,15.91
2016-11-19T10:59:52.170Z,16.08
2016-11-19T11:00:52.197Z,16.29
2016-11-19T11:01:52.289Z,16.32
2016-11-19T11:02:52.311Z,16.28
2016-11-19T11:03:52.369Z,16.29
2016-11-19T11:04:52.454Z,16.26
2016-11-19T11:05:52.443Z,16.28
2016-11-19T11:06:52.509Z,16.21
2016-11-19T11:07:52.545Z,16.24
2016-11-19T11:08:52.619Z,16.28
2016-11-19T11:09:52.664Z,16.36
2016-11-19T11:10:52.718Z,16.29
2016-11-19T11:11:52.777Z,16.43
2016-11-19T11:12:52.838Z,16.32
2016-11-19T11:13:52.856Z,16.49
2016-11-19T11:14:52.926Z,16.5
2016-11-19T11:15:53.004Z,16.51
2016-11-19T11:16:53.514Z,16.47
2016-11-19T11:17:53.085Z,16.41
2016-11-19T11:18:53.104Z,16.46
2016-11-19T11:19:53.677Z,16.23
2016-11-19T11:20:53.195Z,16.01
2016-11-19T11:21:53.276Z,15.97
2016-11-19T11:22:53.357Z,15.84
2016-11-19T11:23:53.869Z,15.84
2016-11-19T11:24:53.513Z,15.88
2016-11-19T11:25:53.519Z,15.95
2016-11-19T11:26:53.510Z,15.94
2016-11-19T11:27:53.569Z,15.8
2016-11-19T11:28:54.182Z,15.92
2016-11-19T11:29:54.282Z,15.8
2016-11-19T11:30:53.677Z,15.77
2016-11-19T11:31:53.760Z,15.91
2016-11-19T11:32:53.794Z,15.9
2016-11-19T11:33:53.813Z,15.91
2016-11-19T11:34:53.963Z,15.9
2016-11-19T11:35:53.917Z,15.79
2016-11-19T11:36:54.016Z,15.72
2016-11-19T11:37:54.025Z,15.79
2016-11-19T11:38:54.085Z,15.77
2016-11-19T11:39:54.238Z,15.68
2016-11-19T11:40:54.168Z,15.68
2016-11-19T11:41:54.205Z,15.76
2016-11-19T11:42:54.305Z,15.72
2016-11-19T11:43:54.368Z,15.77
2016-11-19T11:44:54.374Z,15.72
2016-11-19T11:45:54.415Z,15.75
2016-11-19T11:46:54.460Z,15.84
2016-11-19T11:47:54.549Z,15.91
2016-11-19T11:48:54.586Z,15.86
2016-11-19T11:49:54.639Z,15.95
2016-11-19T11:50:54.645Z,16.04
2016-11-19T11:51:54.741Z,15.98
2016-11-19T11:52:54.764Z,16.01
2016-11-19T11:53:54.811Z,15.95
2016-11-19T11:54:54.876Z,16.04
2016-11-19T11:55:55.047Z,16.01
2016-11-19T11:56:55.454Z,16.13
2016-11-19T11:57:54.986Z,16.28
2016-11-19T11:58:55.579Z,16.29
2016-11-19T11:59:55.087Z,16.28
2016-11-19T12:00:55.257Z,16.33
2016-11-19T12:01:55.227Z,16.28
2016-11-19T12:02:55.256Z,16.35
2016-11-19T12:03:55.338Z,16.26
2016-11-19T12:04:55.359Z,16.17
2016-11-19T12:05:56.034Z,16.29
2016-11-19T12:06:55.441Z,16.38
2016-11-19T12:07:55.509Z,16.42
2016-11-19T12:08:55.569Z,16.5
2016-11-19T12:09:55.604Z,16.53
2016-11-19T12:10:55.737Z,16.58
2016-11-19T12:11:55.671Z,16.71
2016-11-19T12:12:55.755Z,16.86
2016-11-19T12:13:55.772Z,16.99
2016-11-19T12:14:56.868Z,17.12
2016-11-19T12:15:56.380Z,17.16
2016-11-19T12:16:55.950Z,17.14
2016-11-19T12:17:55.975Z,17.11
2016-11-19T12:18:56.047Z,16.93
2016-11-19T12:19:56.071Z,16.74
2016-11-19T12:20:56.108Z,16.5
2016-11-19T12:21:56.178Z,16.54
2016-11-19T12:22:56.765Z,16.64
2016-11-19T12:23:56.270Z,16.72
2016-11-19T12:24:56.362Z,16.79
2016-11-19T12:25:56.384Z,16.84
2016-11-19T12:26:56.537Z,16.96
2016-11-19T12:27:56.473Z,17.06
2016-11-19T12:28:56.558Z,17.09
2016-11-19T12:29:56.562Z,16.87
2016-11-19T12:30:56.669Z,16.97
2016-11-19T12:31:56.789Z,17.01
2016-11-19T12:32:56.703Z,17.06
2016-11-19T12:33:56.793Z,17.11
2016-11-19T12:34:56.818Z,17.26
2016-11-19T12:35:56.885Z,17.16
2016-11-19T12:36:57.027Z,17.2
2016-11-19T12:37:56.973Z,17.08
2016-11-19T12:38:57.536Z,17.08
2016-11-19T12:39:57.038Z,16.87
2016-11-19T12:40:57.139Z,16.97
2016-11-19T12:41:57.289Z,16.99
2016-11-19T12:42:57.749Z,16.81
2016-11-19T12:43:57.250Z,16.89
2016-11-19T12:44:57.847Z,16.84
2016-11-19T12:45:57.334Z,16.83
2016-11-19T12:46:57.482Z,16.69
2016-11-19T12:47:57.475Z,16.47
2016-11-19T12:48:58.065Z,16.5
2016-11-19T12:49:57.532Z,16.5
2016-11-19T12:50:57.625Z,16.5
2016-11-19T12:51:57.694Z,16.47
2016-11-19T12:52:58.275Z,16.57
2016-11-19T12:53:57.779Z,16.61
2016-11-19T12:54:57.829Z,16.79
2016-11-19T12:55:58.383Z,16.9